createdAt,value
2023-02-19T00:02:35.642Z,84.20
2023-02-19T00:07:40.473Z,83.80
2023-02-19T00:12:43.928Z,83.70
2023-02-19T00:17:47.309Z,83.60
2023-02-19T00:22:52.676Z,83.90
2023-02-19T00:27:56.112Z,84.20
2023-02-19T00:32:59.525Z,84.40
2023-02-19T00:38:04.744Z,84.60
2023-02-19T00:43:08.110Z,84.60
2023-02-19T00:48:11.496Z,85.00
2023-02-19T00:53:16.604Z,85.10
2023-02-19T00:58:20.073Z,85.50
2023-02-19T01:03:24.090Z,86.30
2023-02-19T01:08:30.987Z,86.60
2023-02-19T01:13:35.328Z,86.70
2023-02-19T01:18:38.913Z,86.80
2023-02-19T01:23:44.247Z,87.00
2023-02-19T01:28:48.430Z,87.00
2023-02-19T01:33:53.654Z,87.00
2023-02-19T01:39:03.746Z,86.70
2023-02-19T01:44:09.513Z,86.20
2023-02-19T01:49:16.836Z,86.20
2023-02-19T01:54:24.844Z,86.00
2023-02-19T01:59:28.270Z,86.50
2023-02-19T02:04:32.241Z,87.00
2023-02-19T02:09:54.475Z,86.80
2023-02-19T02:14:57.857Z,86.40
2023-02-19T02:20:21.768Z,86.40
2023-02-19T02:25:54.015Z,86.30
2023-02-19T02:31:00.840Z,86.30
2023-02-19T02:36:08.605Z,86.00
2023-02-19T02:41:14.232Z,85.80
2023-02-19T02:46:24.325Z,85.90
2023-02-19T02:51:31.938Z,85.90
2023-02-19T02:56:36.080Z,85.70
2023-02-19T03:02:05.016Z,85.80
2023-02-19T03:07:10.584Z,85.70
2023-02-19T03:12:36.260Z,85.60
2023-02-19T03:18:03.215Z,85.70
2023-02-19T03:23:08.687Z,85.70
2023-02-19T03:28:16.655Z,86.00
2023-02-19T03:33:26.666Z,86.40
2023-02-19T03:38:38.466Z,86.40
2023-02-19T03:43:49.896Z,86.40
2023-02-19T03:49:00.181Z,86.50
2023-02-19T03:54:12.735Z,86.60
2023-02-19T03:59:22.992Z,86.70
2023-02-19T04:04:30.417Z,86.20
2023-02-19T04:09:38.042Z,85.80
2023-02-19T04:14:45.808Z,86.00
2023-02-19T04:19:52.441Z,86.10
2023-02-19T04:24:56.788Z,86.10
2023-02-19T04:30:00.358Z,86.40
2023-02-19T04:35:05.255Z,86.70
2023-02-19T04:40:10.043Z,86.70
2023-02-19T04:45:13.456Z,86.30
2023-02-19T04:50:18.566Z,86.20
2023-02-19T04:55:22.180Z,86.60
2023-02-19T05:00:25.627Z,86.50
2023-02-19T05:05:30.490Z,86.30
2023-02-19T05:10:33.885Z,86.40
2023-02-19T05:15:37.635Z,86.50
2023-02-19T05:20:42.422Z,86.20
2023-02-19T05:25:45.864Z,86.50
2023-02-19T05:30:51.191Z,86.50
2023-02-19T05:35:56.866Z,86.60
2023-02-19T05:41:10.636Z,87.40
2023-02-19T05:46:16.178Z,86.20
2023-02-19T05:51:22.812Z,86.60
2023-02-19T05:56:32.041Z,86.60
2023-02-19T06:01:37.069Z,86.60
2023-02-19T06:06:42.551Z,87.20
2023-02-19T06:11:46.446Z,87.50
2023-02-19T06:16:49.822Z,87.60
2023-02-19T06:21:54.627Z,87.60
2023-02-19T06:26:58.349Z,87.50
2023-02-19T06:32:02.807Z,87.40
2023-02-19T06:37:07.878Z,87.50
2023-02-19T06:42:11.381Z,87.50
2023-02-19T06:47:14.805Z,87.40
2023-02-19T06:52:19.619Z,87.70
2023-02-19T06:57:23.058Z,88.00
2023-02-19T07:02:26.709Z,88.30
2023-02-19T07:07:31.516Z,88.30
2023-02-19T07:12:34.859Z,88.30
2023-02-19T07:17:38.331Z,88.30
2023-02-19T07:22:43.123Z,88.10
2023-02-19T07:27:46.682Z,86.90
2023-02-19T07:32:50.337Z,85.00
2023-02-19T07:37:55.664Z,84.50
2023-02-19T07:43:00.641Z,84.30
2023-02-19T07:48:04.305Z,84.60
2023-02-19T07:53:09.459Z,84.50
2023-02-19T07:58:12.822Z,84.70
2023-02-19T08:03:16.528Z,84.50
2023-02-19T08:08:21.406Z,85.10
2023-02-19T08:13:26.290Z,85.30
2023-02-19T08:18:31.956Z,85.40
2023-02-19T08:23:37.000Z,85.20
2023-02-19T08:28:40.727Z,84.40
2023-02-19T08:33:44.604Z,82.90
2023-02-19T08:38:49.382Z,83.10
2023-02-19T08:43:52.812Z,83.60
2023-02-19T08:48:56.356Z,83.50
2023-02-19T08:54:04.214Z,83.50
2023-02-19T08:59:07.864Z,83.70
2023-02-19T09:04:13.041Z,83.40
2023-02-19T09:09:18.180Z,83.90
2023-02-19T09:14:21.574Z,83.50
2023-02-19T09:19:25.095Z,83.60
2023-02-19T09:24:29.863Z,83.80
2023-02-19T09:29:34.580Z,84.10
2023-02-19T09:34:39.354Z,84.40
2023-02-19T09:39:44.226Z,84.20
2023-02-19T09:44:50.782Z,84.40
2023-02-19T09:49:57.215Z,85.10
2023-02-19T09:55:04.306Z,85.40
2023-02-19T10:00:21.738Z,85.40
2023-02-19T10:05:26.397Z,85.40
2023-02-19T10:10:35.427Z,84.70
2023-02-19T10:15:45.965Z,84.60
2023-02-19T10:20:50.607Z,84.10
2023-02-19T10:25:57.854Z,84.80
2023-02-19T10:31:04.253Z,83.10
2023-02-19T10:36:17.806Z,82.30
2023-02-19T10:41:25.004Z,81.80
2023-02-19T10:46:31.665Z,81.20
2023-02-19T10:51:37.298Z,81.80
2023-02-19T10:56:42.274Z,81.00
2023-02-19T11:01:56.089Z,81.80
2023-02-19T11:06:59.588Z,81.60
2023-02-19T11:12:05.861Z,81.70
2023-02-19T11:17:24.425Z,82.90
2023-02-19T11:22:32.524Z,82.30
2023-02-19T11:27:54.610Z,79.90
2023-02-19T11:32:58.102Z,78.90
2023-02-19T11:38:03.568Z,80.10
2023-02-19T11:43:24.500Z,77.70
2023-02-19T11:48:53.827Z,76.30
2023-02-19T11:54:11.587Z,75.50
2023-02-19T11:59:24.262Z,76.10
2023-02-19T12:05:00.996Z,76.30
2023-02-19T12:10:13.194Z,76.50
2023-02-19T12:15:42.146Z,76.90
2023-02-19T12:20:54.026Z,75.90
2023-02-19T12:26:05.016Z,75.60
2023-02-19T12:31:39.350Z,75.80
2023-02-19T12:36:45.292Z,76.10
2023-02-19T12:41:58.835Z,76.30
2023-02-19T12:47:07.521Z,73.00
2023-02-19T12:52:16.197Z,70.90
2023-02-19T12:57:23.473Z,68.60
2023-02-19T13:02:35.650Z,67.00
2023-02-19T13:07:46.235Z,65.80
2023-02-19T13:12:51.800Z,62.60
2023-02-19T13:18:01.329Z,63.40
2023-02-19T13:23:28.083Z,63.70
2023-02-19T13:28:48.314Z,64.90
2023-02-19T13:34:04.088Z,64.80
2023-02-19T13:39:08.734Z,64.30
2023-02-19T13:44:20.205Z,63.50
2023-02-19T13:49:43.158Z,63.70
2023-02-19T13:54:46.862Z,63.90
2023-02-19T13:59:51.228Z,63.30
2023-02-19T14:05:00.205Z,63.20
2023-02-19T14:10:05.737Z,63.30
2023-02-19T14:15:43.651Z,63.40
2023-02-19T14:20:48.645Z,63.80
2023-02-19T14:25:55.968Z,64.30
2023-02-19T14:31:01.796Z,62.60
2023-02-19T14:36:13.673Z,61.10
2023-02-19T14:41:18.239Z,60.90
2023-02-19T14:46:30.316Z,60.60
2023-02-19T14:51:39.336Z,61.10
2023-02-19T14:56:46.264Z,61.00
2023-02-19T15:01:59.154Z,61.50
2023-02-19T15:07:07.981Z,61.60
2023-02-19T15:12:17.133Z,62.10
2023-02-19T15:17:26.715Z,62.40
2023-02-19T15:22:32.908Z,62.80
2023-02-19T15:27:37.434Z,63.80
2023-02-19T15:32:41.136Z,63.10
2023-02-19T15:37:45.995Z,63.30
2023-02-19T15:42:49.596Z,63.50
2023-02-19T15:47:56.656Z,63.50
2023-02-19T15:53:07.154Z,62.60
2023-02-19T15:58:17.980Z,61.50
2023-02-19T16:03:24.209Z,62.10
2023-02-19T16:08:33.004Z,62.00
2023-02-19T16:13:36.923Z,62.00
2023-02-19T16:18:46.162Z,62.40
2023-02-19T16:23:56.969Z,62.30
2023-02-19T16:29:00.456Z,62.50
2023-02-19T16:34:18.547Z,62.70
2023-02-19T16:39:24.941Z,62.40
2023-02-19T16:44:35.766Z,62.80
2023-02-19T16:49:40.730Z,62.70
2023-02-19T16:54:45.541Z,63.00
2023-02-19T16:59:49.188Z,62.70
2023-02-19T17:04:55.244Z,62.90
2023-02-19T17:10:00.154Z,63.10
2023-02-19T17:15:03.680Z,63.20
2023-02-19T17:20:21.828Z,63.20
2023-02-19T17:25:26.709Z,63.20
2023-02-19T17:30:32.672Z,63.00
2023-02-19T17:35:36.391Z,62.80
2023-02-19T17:40:41.338Z,62.80
2023-02-19T17:45:44.827Z,63.00
2023-02-19T17:50:49.233Z,62.90
2023-02-19T17:55:54.023Z,63.30
2023-02-19T18:00:57.565Z,63.80
2023-02-19T18:06:01.270Z,64.00
2023-02-19T18:11:08.320Z,64.10
2023-02-19T18:16:12.119Z,64.20
2023-02-19T18:21:15.543Z,64.30
2023-02-19T18:26:22.201Z,64.20
2023-02-19T18:31:25.699Z,64.70
2023-02-19T18:36:29.170Z,65.00
2023-02-19T18:41:34.028Z,65.30
2023-02-19T18:46:37.513Z,65.30
2023-02-19T18:51:41.375Z,65.30
2023-02-19T18:56:47.476Z,65.80
2023-02-19T19:01:51.370Z,66.10
2023-02-19T19:06:54.986Z,66.00
2023-02-19T19:11:59.942Z,65.90
2023-02-19T19:17:03.366Z,66.20
2023-02-19T19:22:06.827Z,66.60
2023-02-19T19:27:11.658Z,66.90
2023-02-19T19:32:15.298Z,67.00
2023-02-19T19:37:19.168Z,67.30
2023-02-19T19:42:24.525Z,67.40
2023-02-19T19:47:28.246Z,67.40
2023-02-19T19:52:32.071Z,67.60
2023-02-19T19:57:38.536Z,67.60
2023-02-19T20:02:43.840Z,67.50
2023-02-19T20:07:47.383Z,67.60
2023-02-19T20:12:52.191Z,67.60
2023-02-19T20:17:55.609Z,67.70
2023-02-19T20:22:59.069Z,67.90
2023-02-19T20:28:03.885Z,67.80
2023-02-19T20:33:07.281Z,68.00
2023-02-19T20:38:10.680Z,68.30
2023-02-19T20:43:15.594Z,68.30
2023-02-19T20:48:19.164Z,68.60
2023-02-19T20:53:22.559Z,68.70
2023-02-19T20:58:27.459Z,69.10
2023-02-19T21:03:31.095Z,69.40
2023-02-19T21:08:35.526Z,70.40
2023-02-19T21:13:41.074Z,69.70
2023-02-19T21:18:44.470Z,69.40
2023-02-19T21:23:47.928Z,69.30
2023-02-19T21:28:53.708Z,69.40
2023-02-19T21:33:57.072Z,69.40
2023-02-19T21:39:00.588Z,69.60
2023-02-19T21:44:06.026Z,69.80
2023-02-19T21:49:09.542Z,70.00
2023-02-19T21:54:16.902Z,70.00
2023-02-19T21:59:22.911Z,69.80
2023-02-19T22:04:27.359Z,69.80
2023-02-19T22:09:31.017Z,69.80
2023-02-19T22:14:35.805Z,69.90
2023-02-19T22:19:39.483Z,69.80
2023-02-19T22:24:42.997Z,69.90
2023-02-19T22:29:49.363Z,70.30
2023-02-19T22:34:53.294Z,70.90
2023-02-19T22:39:56.889Z,71.40
2023-02-19T22:45:01.656Z,71.50
2023-02-19T22:50:05.455Z,71.50
2023-02-19T22:55:09.687Z,71.50
2023-02-19T23:00:20.938Z,71.70
2023-02-19T23:05:25.483Z,71.70
2023-02-19T23:10:29.036Z,71.90
2023-02-19T23:15:33.821Z,71.90
2023-02-19T23:20:37.300Z,72.00
2023-02-19T23:25:40.962Z,71.90
2023-02-19T23:30:46.089Z,72.10
2023-02-19T23:35:49.494Z,72.30
2023-02-19T23:40:52.884Z,72.70
2023-02-19T23:45:57.766Z,72.70
2023-02-19T23:51:01.412Z,72.60
2023-02-19T23:56:05.666Z,72.80
